Time,TemperatureF,DewpointF,PressureIn,WindDirection,WindDirectionDegrees,WindSpeedMPH,WindSpeedGustMPH,Humidity,HourlyPrecipIn,Conditions,Clouds,dailyrainin,SoftwareType,DateUTC
2013-02-13 00:02:00,11.0,9.0,29.76,SE,146,0.0,0.0,92,0.00,,,0.00,,2013-02-13 06:02:00,
2013-02-13 00:11:00,9.0,7.0,29.76,SE,145,0.0,0.0,91,0.00,,,0.00,,2013-02-13 06:11:00,
2013-02-13 00:21:00,9.0,7.0,29.76,SE,145,0.0,0.0,91,0.00,,,0.00,,2013-02-13 06:21:00,
2013-02-13 00:32:00,9.0,7.0,29.76,SE,145,0.0,0.0,91,0.00,,,0.00,,2013-02-13 06:32:00,
2013-02-13 00:42:00,9.0,7.0,29.76,SE,145,0.0,0.0,91,0.00,,,0.00,,2013-02-13 06:42:00,
2013-02-13 00:51:00,8.0,6.0,29.75,SE,145,0.0,0.0,90,0.00,,,0.00,,2013-02-13 06:51:00,
2013-02-13 01:02:00,7.0,5.0,29.75,SE,144,0.0,0.0,92,0.00,,,0.00,,2013-02-13 07:02:00,
2013-02-13 01:11:00,7.0,5.0,29.74,SE,144,0.0,0.0,91,0.00,,,0.00,,2013-02-13 07:11:00,
2013-02-13 01:22:00,7.0,5.0,29.74,SE,144,0.0,0.0,91,0.00,,,0.00,,2013-02-13 07:22:00,
2013-02-13 01:32:00,7.0,5.0,29.74,SE,144,0.0,0.0,91,0.00,,,0.00,,2013-02-13 07:32:00,
2013-02-13 01:51:00,7.0,5.0,29.74,SE,143,0.0,0.0,91,0.00,,,0.00,,2013-02-13 07:51:00,
2013-02-13 02:01:00,7.0,5.0,29.73,SE,143,0.0,0.0,91,0.00,,,0.00,,2013-02-13 08:01:00,
2013-02-13 02:11:00,7.0,5.0,29.73,SE,143,0.0,0.0,91,0.00,,,0.00,,2013-02-13 08:11:00,
2013-02-13 02:21:00,7.0,5.0,29.73,SE,144,0.0,0.0,92,0.00,,,0.00,,2013-02-13 08:21:00,
2013-02-13 02:32:00,7.0,5.0,29.72,SE,144,0.0,0.0,91,0.00,,,0.00,,2013-02-13 08:32:00,
2013-02-13 02:43:00,7.0,5.0,29.72,SE,144,0.0,0.0,91,0.00,,,0.00,,2013-02-13 08:43:00,
2013-02-13 02:52:00,7.0,5.0,29.72,SE,143,0.0,0.0,92,0.00,,,0.00,,2013-02-13 08:52:00,
2013-02-13 03:01:00,8.0,6.0,29.72,SE,145,0.0,0.0,92,0.00,,,0.00,,2013-02-13 09:01:00,
2013-02-13 03:11:00,8.0,6.0,29.72,SE,145,0.0,0.0,92,0.00,,,0.00,,2013-02-13 09:11:00,
2013-02-13 03:21:00,9.0,7.0,29.73,SSE,150,0.0,1.0,92,0.00,,,0.00,,2013-02-13 09:21:00,
2013-02-13 03:31:00,9.0,7.0,29.72,SSE,151,0.0,0.0,92,0.00,,,0.00,,2013-02-13 09:31:00,
2013-02-13 03:42:00,9.0,7.0,29.72,SSE,150,0.0,0.0,92,0.00,,,0.00,,2013-02-13 09:42:00,
2013-02-13 03:51:00,9.0,7.0,29.72,SSE,150,0.0,0.0,92,0.00,,,0.00,,2013-02-13 09:51:00,
2013-02-13 04:01:00,9.0,7.0,29.72,SSE,151,0.0,0.0,91,0.00,,,0.00,,2013-02-13 10:01:00,
2013-02-13 04:11:00,8.0,6.0,29.72,SSE,150,0.0,0.0,90,0.00,,,0.00,,2013-02-13 10:11:00,
2013-02-13 04:21:00,8.0,6.0,29.72,SSE,150,0.0,0.0,90,0.00,,,0.00,,2013-02-13 10:21:00,
2013-02-13 04:32:00,7.0,5.0,29.72,SSE,150,0.0,0.0,90,0.00,,,0.00,,2013-02-13 10:32:00,
2013-02-13 04:42:00,7.0,5.0,29.71,SSE,150,0.0,0.0,91,0.00,,,0.00,,2013-02-13 10:42:00,
2013-02-13 04:52:00,7.0,5.0,29.71,SSE,150,0.0,0.0,91,0.00,,,0.00,,2013-02-13 10:52:00,
2013-02-13 05:01:00,7.0,5.0,29.71,SSE,150,0.0,0.0,92,0.00,,,0.00,,2013-02-13 11:01:00,
2013-02-13 05:11:00,7.0,5.0,29.71,SSE,150,0.0,0.0,92,0.00,,,0.00,,2013-02-13 11:11:00,
2013-02-13 05:22:00,8.0,6.0,29.72,SSE,150,0.0,0.0,93,0.00,,,0.00,,2013-02-13 11:22:00,
2013-02-13 05:32:00,9.0,7.0,29.72,SSE,150,0.0,0.0,93,0.00,,,0.00,,2013-02-13 11:32:00,
2013-02-13 05:42:00,10.0,8.0,29.71,SSE,150,0.0,0.0,93,0.00,,,0.00,,2013-02-13 11:42:00,
2013-02-13 05:52:00,10.0,8.0,29.71,SSE,150,0.0,0.0,93,0.00,,,0.00,,2013-02-13 11:52:00,
2013-02-13 06:02:00,11.0,9.0,29.71,SSE,150,0.0,0.0,93,0.00,,,0.00,,2013-02-13 12:02:00,
2013-02-13 06:11:00,11.0,9.0,29.71,SSE,150,0.0,0.0,93,0.00,,,0.00,,2013-02-13 12:11:00,
2013-02-13 06:22:00,12.0,10.0,29.71,SSE,150,0.0,0.0,93,0.00,,,0.00,,2013-02-13 12:22:00,
2013-02-13 06:32:00,12.0,10.0,29.70,SSE,150,0.0,0.0,93,0.00,,,0.00,,2013-02-13 12:32:00,
2013-02-13 06:42:00,12.0,10.0,29.70,SSE,150,0.0,0.0,92,0.00,,,0.00,,2013-02-13 12:42:00,
2013-02-13 06:52:00,12.0,10.0,29.70,SSE,150,0.0,0.0,92,0.00,,,0.00,,2013-02-13 12:52:00,
2013-02-13 07:02:00,12.0,10.0,29.70,SSE,151,0.0,0.0,92,0.00,,,0.00,,2013-02-13 13:02:00,
2013-02-13 07:11:00,12.0,10.0,29.70,SSE,151,0.0,0.0,92,0.00,,,0.00,,2013-02-13 13:11:00,
2013-02-13 07:21:00,12.0,10.0,29.71,SSE,150,0.0,0.0,92,0.00,,,0.00,,2013-02-13 13:21:00,
2013-02-13 07:32:00,13.0,11.0,29.71,SSE,151,0.0,0.0,92,0.00,,,0.00,,2013-02-13 13:32:00,
2013-02-13 07:41:00,13.0,11.0,29.71,SSE,150,0.0,0.0,93,0.00,,,0.00,,2013-02-13 13:41:00,
2013-02-13 07:52:00,13.0,11.0,29.71,SSE,150,0.0,0.0,93,0.00,,,0.00,,2013-02-13 13:52:00,
2013-02-13 08:01:00,14.0,12.0,29.70,SSE,150,0.0,0.0,93,0.00,,,0.00,,2013-02-13 14:01:00,
2013-02-13 08:11:00,14.0,12.0,29.70,SSE,150,0.0,0.0,93,0.00,,,0.00,,2013-02-13 14:11:00,
2013-02-13 08:21:00,15.0,13.0,29.70,SSE,150,0.0,0.0,93,0.00,,,0.00,,2013-02-13 14:21:00,
2013-02-13 08:31:00,15.0,13.0,29.71,SSE,151,0.0,0.0,93,0.00,,,0.00,,2013-02-13 14:31:00,
2013-02-13 08:42:00,18.0,17.0,29.70,SSE,151,0.0,0.0,95,0.00,,,0.00,,2013-02-13 14:42:00,
2013-02-13 08:52:00,18.0,17.0,29.70,SSE,151,0.0,0.0,95,0.00,,,0.00,,2013-02-13 14:52:00,
2013-02-13 09:01:00,20.0,19.0,29.70,West,273,0.0,1.0,94,0.00,,,0.00,,2013-02-13 15:01:00,
2013-02-13 09:11:00,22.0,21.0,29.70,West,273,0.0,0.0,94,0.00,,,0.00,,2013-02-13 15:11:00,
2013-02-13 09:21:00,22.0,21.0,29.70,West,273,0.0,0.0,94,0.00,,,0.00,,2013-02-13 15:21:00,
2013-02-13 09:32:00,24.0,22.0,29.70,West,277,0.0,1.0,93,0.00,,,0.00,,2013-02-13 15:32:00,
2013-02-13 09:42:00,24.0,22.0,29.70,West,277,0.0,1.0,93,0.00,,,0.00,,2013-02-13 15:42:00,
2013-02-13 09:52:00,25.0,22.0,29.69,WSW,256,0.0,1.0,90,0.00,,,0.00,,2013-02-13 15:52:00,
2013-02-13 10:01:00,27.0,24.0,29.69,WSW,238,0.0,2.0,87,0.00,,,0.00,,2013-02-13 16:01:00,
2013-02-13 10:11:00,28.0,24.0,29.69,West,276,0.0,1.0,85,0.00,,,0.00,,2013-02-13 16:11:00,
2013-02-13 10:21:00,28.0,24.0,29.69,West,276,0.0,1.0,85,0.00,,,0.00,,2013-02-13 16:21:00,
2013-02-13 10:31:00,29.0,24.0,29.68,NNW,340,0.0,3.0,82,0.00,,,0.00,,2013-02-13 16:31:00,
2013-02-13 10:42:00,29.0,24.0,29.68,NNW,340,0.0,3.0,82,0.00,,,0.00,,2013-02-13 16:42:00,
2013-02-13 10:52:00,30.0,25.0,29.68,NNW,333,0.0,3.0,81,0.00,,,0.00,,2013-02-13 16:52:00,
2013-02-13 11:01:00,31.0,26.0,29.68,SE,129,0.0,2.0,80,0.00,,,0.00,,2013-02-13 17:01:00,
2013-02-13 11:11:00,31.0,26.0,29.68,SE,129,0.0,2.0,80,0.00,,,0.00,,2013-02-13 17:11:00,
2013-02-13 11:21:00,31.0,25.0,29.68,NW,311,0.0,2.0,79,0.00,,,0.00,,2013-02-13 17:21:00,
2013-02-13 11:31:00,33.0,27.0,29.67,NNW,338,0.0,1.0,78,0.01,,,0.01,,2013-02-13 17:31:00,
2013-02-13 11:41:00,33.0,27.0,29.67,NNW,338,0.0,1.0,78,0.01,,,0.01,,2013-02-13 17:41:00,
2013-02-13 11:52:00,34.0,27.0,29.67,SSW,198,0.0,1.0,76,0.01,,,0.01,,2013-02-13 17:52:00,
2013-02-13 12:01:00,34.0,27.0,29.67,NNW,331,0.0,2.0,76,0.01,,,0.01,,2013-02-13 18:01:00,
2013-02-13 12:11:00,34.0,27.0,29.67,NNW,331,0.0,2.0,76,0.01,,,0.01,,2013-02-13 18:11:00,
2013-02-13 12:23:00,34.0,27.0,29.67,NNW,331,0.0,2.0,76,0.01,,,0.01,,2013-02-13 18:23:00,
2013-02-13 12:32:00,36.0,28.0,29.66,SE,129,0.0,2.0,73,0.00,,,0.01,,2013-02-13 18:32:00,
2013-02-13 12:42:00,36.0,28.0,29.66,SE,129,0.0,2.0,73,0.00,,,0.01,,2013-02-13 18:42:00,
2013-02-13 12:52:00,36.0,29.0,29.66,NW,325,0.0,2.0,75,0.01,,,0.02,,2013-02-13 18:52:00,
2013-02-13 13:01:00,37.0,29.0,29.65,SW,226,0.0,1.0,74,0.01,,,0.02,,2013-02-13 19:01:00,
2013-02-13 13:11:00,37.0,29.0,29.65,South,169,0.0,3.0,73,0.02,,,0.03,,2013-02-13 19:11:00,
2013-02-13 13:21:00,37.0,29.0,29.65,South,169,0.0,3.0,73,0.02,,,0.03,,2013-02-13 19:21:00,
2013-02-13 13:31:00,37.0,29.0,29.65,WNW,300,0.0,2.0,72,0.02,,,0.03,,2013-02-13 19:31:00,
2013-02-13 13:41:00,37.0,29.0,29.65,WNW,300,0.0,2.0,72,0.02,,,0.03,,2013-02-13 19:41:00,
2013-02-13 13:52:00,38.0,29.0,29.65,WSW,256,0.0,4.0,71,0.01,,,0.03,,2013-02-13 19:52:00,
2013-02-13 14:02:00,38.0,29.0,29.64,WSW,253,0.0,1.0,69,0.02,,,0.04,,2013-02-13 20:02:00,
2013-02-13 14:11:00,38.0,29.0,29.65,SE,142,0.0,1.0,71,0.01,,,0.04,,2013-02-13 20:11:00,
2013-02-13 14:21:00,38.0,29.0,29.65,SE,142,0.0,1.0,71,0.01,,,0.04,,2013-02-13 20:21:00,
2013-02-13 14:31:00,39.0,31.0,29.65,SSE,155,0.0,2.0,72,0.02,,,0.05,,2013-02-13 20:31:00,
2013-02-13 14:42:00,38.0,29.0,29.64,NW,311,0.0,2.0,69,0.02,,,0.05,,2013-02-13 20:42:00,
2013-02-13 14:52:00,38.0,29.0,29.64,NW,311,0.0,2.0,69,0.02,,,0.05,,2013-02-13 20:52:00,
2013-02-13 15:01:00,38.0,29.0,29.64,NW,311,0.0,2.0,69,0.02,,,0.05,,2013-02-13 21:01:00,
2013-02-13 15:11:00,38.0,29.0,29.64,NW,311,0.0,2.0,69,0.02,,,0.05,,2013-02-13 21:11:00,
2013-02-13 15:21:00,38.0,28.0,29.64,NNE,15,0.0,3.0,68,0.02,,,0.06,,2013-02-13 21:21:00,
2013-02-13 15:31:00,38.0,29.0,29.64,NE,52,0.0,2.0,70,0.01,,,0.06,,2013-02-13 21:31:00,
2013-02-13 15:42:00,38.0,29.0,29.64,NE,52,0.0,2.0,70,0.01,,,0.06,,2013-02-13 21:42:00,
2013-02-13 15:52:00,37.0,30.0,29.64,South,169,0.0,1.0,76,0.02,,,0.07,,2013-02-13 21:52:00,
2013-02-13 16:02:00,36.0,30.0,29.64,South,180,0.0,2.0,78,0.01,,,0.07,,2013-02-13 22:02:00,
2013-02-13 16:11:00,36.0,30.0,29.64,South,180,0.0,2.0,78,0.01,,,0.07,,2013-02-13 22:11:00,
2013-02-13 16:21:00,34.0,30.0,29.64,SSE,158,0.0,1.0,84,0.02,,,0.08,,2013-02-13 22:21:00,
2013-02-13 16:31:00,33.0,30.0,29.64,SSE,158,0.0,0.0,87,0.01,,,0.08,,2013-02-13 22:31:00,
2013-02-13 16:52:00,32.0,29.0,29.63,SSE,158,0.0,0.0,89,0.01,,,0.08,,2013-02-13 22:52:00,
2013-02-13 17:01:00,31.0,28.0,29.63,SSE,158,0.0,0.0,90,0.01,,,0.08,,2013-02-13 23:01:00,
2013-02-13 17:21:00,30.0,28.0,29.63,SSE,158,0.0,0.0,92,0.00,,,0.08,,2013-02-13 23:21:00,
2013-02-13 17:32:00,28.0,26.0,29.64,SSE,158,0.0,0.0,92,0.00,,,0.08,,2013-02-13 23:32:00,
2013-02-13 17:52:00,28.0,26.0,29.64,SSE,158,0.0,0.0,93,0.00,,,0.08,,2013-02-13 23:52:00,
2013-02-13 18:02:00,27.0,26.0,29.64,SSE,158,0.0,0.0,95,0.00,,,0.08,,2013-02-14 00:02:00,
2013-02-13 18:21:00,26.0,25.0,29.64,SSE,158,0.0,0.0,95,0.00,,,0.08,,2013-02-14 00:21:00,
2013-02-13 18:32:00,26.0,25.0,29.65,SSE,158,0.0,0.0,96,0.00,,,0.08,,2013-02-14 00:32:00,
2013-02-13 18:52:00,26.0,25.0,29.65,SSE,158,0.0,0.0,95,0.00,,,0.08,,2013-02-14 00:52:00,
2013-02-13 19:01:00,25.0,24.0,29.65,SSE,158,0.0,0.0,96,0.00,,,0.08,,2013-02-14 01:01:00,
2013-02-13 19:31:00,23.0,22.0,29.66,SSE,158,0.0,0.0,95,0.00,,,0.08,,2013-02-14 01:31:00,
2013-02-13 19:52:00,23.0,22.0,29.65,SSE,158,0.0,0.0,96,0.00,,,0.08,,2013-02-14 01:52:00,
2013-02-13 20:01:00,22.0,21.0,29.65,SSE,158,0.0,0.0,96,0.00,,,0.08,,2013-02-14 02:01:00,
2013-02-13 20:11:00,23.0,22.0,29.65,SSE,158,0.0,0.0,97,0.00,,,0.08,,2013-02-14 02:11:00,
2013-02-13 20:21:00,23.0,22.0,29.65,SSE,158,0.0,0.0,97,0.00,,,0.08,,2013-02-14 02:21:00,
2013-02-13 20:31:00,23.0,22.0,29.65,SSE,158,0.0,0.0,97,0.00,,,0.08,,2013-02-14 02:31:00,
2013-02-13 20:41:00,23.0,22.0,29.65,SSE,158,0.0,0.0,97,0.00,,,0.08,,2013-02-14 02:41:00,
2013-02-13 20:52:00,23.0,22.0,29.65,SSE,158,0.0,0.0,97,0.00,,,0.08,,2013-02-14 02:52:00,
2013-02-13 21:02:00,23.0,22.0,29.65,SSE,158,0.0,0.0,96,0.00,,,0.08,,2013-02-14 03:02:00,
2013-02-13 21:11:00,22.0,21.0,29.65,SSE,158,0.0,0.0,96,0.00,,,0.08,,2013-02-14 03:11:00,
2013-02-13 21:21:00,22.0,21.0,29.65,SSE,158,0.0,0.0,96,0.00,,,0.08,,2013-02-14 03:21:00,
2013-02-13 21:31:00,22.0,21.0,29.65,SSE,158,0.0,0.0,95,0.00,,,0.08,,2013-02-14 03:31:00,
2013-02-13 21:42:00,22.0,21.0,29.65,SSE,158,0.0,0.0,95,0.00,,,0.08,,2013-02-14 03:42:00,
2013-02-13 21:52:00,22.0,21.0,29.65,SSE,158,0.0,0.0,96,0.00,,,0.08,,2013-02-14 03:52:00,
2013-02-13 22:01:00,22.0,21.0,29.65,SSE,158,0.0,0.0,96,0.00,,,0.08,,2013-02-14 04:01:00,
2013-02-13 22:12:00,21.0,20.0,29.65,SSE,158,0.0,0.0,96,0.00,,,0.08,,2013-02-14 04:12:00,
2013-02-13 22:21:00,21.0,20.0,29.65,SSE,158,0.0,0.0,96,0.00,,,0.08,,2013-02-14 04:21:00,
2013-02-13 22:31:00,22.0,21.0,29.65,SSE,158,0.0,0.0,96,0.00,,,0.08,,2013-02-14 04:31:00,
2013-02-13 22:41:00,22.0,21.0,29.65,SSE,158,0.0,0.0,96,0.00,,,0.08,,2013-02-14 04:41:00,
2013-02-13 22:52:00,22.0,21.0,29.65,SSE,158,0.0,0.0,96,0.00,,,0.08,,2013-02-14 04:52:00,
2013-02-13 23:02:00,23.0,22.0,29.65,SSE,158,0.0,0.0,96,0.00,,,0.08,,2013-02-14 05:02:00,
2013-02-13 23:11:00,23.0,22.0,29.65,SSE,158,0.0,0.0,96,0.00,,,0.08,,2013-02-14 05:11:00,
2013-02-13 23:22:00,23.0,22.0,29.65,SSE,158,0.0,0.0,96,0.00,,,0.08,,2013-02-14 05:22:00,
2013-02-13 23:31:00,24.0,23.0,29.65,SSE,158,0.0,0.0,96,0.00,,,0.08,,2013-02-14 05:31:00,
2013-02-13 23:41:00,24.0,23.0,29.65,SSE,158,0.0,0.0,96,0.00,,,0.08,,2013-02-14 05:41:00,
2013-02-13 23:52:00,24.0,23.0,29.65,SSE,158,0.0,0.0,96,0.00,,,0.08,,2013-02-14 05:52:00,